sensor_id;sensor_type;location;lat;lon;timestamp;temperature;humidity
40504;DHT22;42292;49.048;8.374;2022-12-18T00:01:20;-7.80;99.90
40504;DHT22;42292;49.048;8.374;2022-12-18T00:03:49;-7.80;99.90
40504;DHT22;42292;49.048;8.374;2022-12-18T00:06:16;-7.80;99.90
40504;DHT22;42292;49.048;8.374;2022-12-18T00:08:45;-7.80;99.90
40504;DHT22;42292;49.048;8.374;2022-12-18T00:11:13;-7.80;99.90
40504;DHT22;42292;49.048;8.374;2022-12-18T00:13:39;-7.80;99.90
40504;DHT22;42292;49.048;8.374;2022-12-18T00:16:10;-7.80;99.90
40504;DHT22;42292;49.048;8.374;2022-12-18T00:18:38;-7.90;99.90
40504;DHT22;42292;49.048;8.374;2022-12-18T00:21:09;-7.90;99.90
40504;DHT22;42292;49.048;8.374;2022-12-18T00:23:36;-7.90;99.90
40504;DHT22;42292;49.048;8.374;2022-12-18T00:26:04;-7.90;99.90
40504;DHT22;42292;49.048;8.374;2022-12-18T00:28:33;-7.90;99.90
40504;DHT22;42292;49.048;8.374;2022-12-18T00:31:05;-8.00;99.90
40504;DHT22;42292;49.048;8.374;2022-12-18T00:33:31;-8.00;99.90
40504;DHT22;42292;49.048;8.374;2022-12-18T00:36:02;-8.00;99.90
40504;DHT22;42292;49.048;8.374;2022-12-18T00:38:30;-8.00;99.90
40504;DHT22;42292;49.048;8.374;2022-12-18T00:40:58;-8.00;99.90
40504;DHT22;42292;49.048;8.374;2022-12-18T00:43:26;-8.00;99.90
40504;DHT22;42292;49.048;8.374;2022-12-18T00:45:52;-7.80;99.90
40504;DHT22;42292;49.048;8.374;2022-12-18T00:48:18;-7.80;99.90
40504;DHT22;42292;49.048;8.374;2022-12-18T00:50:43;-7.80;99.90
40504;DHT22;42292;49.048;8.374;2022-12-18T00:53:12;-7.70;99.90
40504;DHT22;42292;49.048;8.374;2022-12-18T00:55:39;-7.70;99.90
40504;DHT22;42292;49.048;8.374;2022-12-18T00:58:05;-7.70;99.90
40504;DHT22;42292;49.048;8.374;2022-12-18T01:00:34;-7.70;99.90
40504;DHT22;42292;49.048;8.374;2022-12-18T01:02:59;-7.70;99.90
40504;DHT22;42292;49.048;8.374;2022-12-18T01:05:27;-7.70;99.90
40504;DHT22;42292;49.048;8.374;2022-12-18T01:07:53;-7.70;99.90
40504;DHT22;42292;49.048;8.374;2022-12-18T01:10:21;-7.60;99.90
40504;DHT22;42292;49.048;8.374;2022-12-18T01:12:49;-7.60;99.90
40504;DHT22;42292;49.048;8.374;2022-12-18T01:15:15;-7.40;99.90
40504;DHT22;42292;49.048;8.374;2022-12-18T01:17:40;-7.20;99.90
40504;DHT22;42292;49.048;8.374;2022-12-18T01:20:10;-7.00;99.90
40504;DHT22;42292;49.048;8.374;2022-12-18T01:22:36;-7.00;99.90
40504;DHT22;42292;49.048;8.374;2022-12-18T01:25:03;-7.10;99.90
40504;DHT22;42292;49.048;8.374;2022-12-18T01:27:32;-7.30;99.90
40504;DHT22;42292;49.048;8.374;2022-12-18T01:29:57;-7.40;99.90
40504;DHT22;42292;49.048;8.374;2022-12-18T01:32:23;-7.40;99.90
40504;DHT22;42292;49.048;8.374;2022-12-18T01:34:49;-7.40;99.90
40504;DHT22;42292;49.048;8.374;2022-12-18T01:37:14;-7.40;99.90
40504;DHT22;42292;49.048;8.374;2022-12-18T01:39:40;-7.30;99.90
40504;DHT22;42292;49.048;8.374;2022-12-18T01:42:12;-7.30;99.90
40504;DHT22;42292;49.048;8.374;2022-12-18T01:47:47;-6.80;99.90
40504;DHT22;42292;49.048;8.374;2022-12-18T01:53:00;-7.10;99.90
40504;DHT22;42292;49.048;8.374;2022-12-18T01:55:30;-7.00;99.90
40504;DHT22;42292;49.048;8.374;2022-12-18T01:57:59;-7.00;99.90
40504;DHT22;42292;49.048;8.374;2022-12-18T02:00:25;-7.30;99.90
40504;DHT22;42292;49.048;8.374;2022-12-18T02:02:55;-7.40;99.90
40504;DHT22;42292;49.048;8.374;2022-12-18T02:08:12;-7.40;99.90
40504;DHT22;42292;49.048;8.374;2022-12-18T02:10:45;-7.50;99.90
40504;DHT22;42292;49.048;8.374;2022-12-18T02:16:18;-7.40;99.90
40504;DHT22;42292;49.048;8.374;2022-12-18T02:18:49;-7.30;99.90
40504;DHT22;42292;49.048;8.374;2022-12-18T02:29:05;-7.50;99.90
40504;DHT22;42292;49.048;8.374;2022-12-18T02:31:36;-7.60;99.90
40504;DHT22;42292;49.048;8.374;2022-12-18T02:34:08;-7.50;99.90
40504;DHT22;42292;49.048;8.374;2022-12-18T02:36:39;-7.60;99.90
40504;DHT22;42292;49.048;8.374;2022-12-18T02:39:07;-7.60;99.90
40504;DHT22;42292;49.048;8.374;2022-12-18T02:41:36;-7.70;99.90
40504;DHT22;42292;49.048;8.374;2022-12-18T02:44:09;-7.70;99.90
40504;DHT22;42292;49.048;8.374;2022-12-18T02:46:39;-7.60;99.90
40504;DHT22;42292;49.048;8.374;2022-12-18T02:51:54;-7.60;99.90
40504;DHT22;42292;49.048;8.374;2022-12-18T02:59:47;-7.50;99.90
40504;DHT22;42292;49.048;8.374;2022-12-18T03:02:21;-7.60;99.90
40504;DHT22;42292;49.048;8.374;2022-12-18T03:05:02;-7.60;99.90
40504;DHT22;42292;49.048;8.374;2022-12-18T03:07:45;-7.70;99.90
40504;DHT22;42292;49.048;8.374;2022-12-18T03:10:14;-7.30;99.90
40504;DHT22;42292;49.048;8.374;2022-12-18T03:12:58;-7.10;99.90
40504;DHT22;42292;49.048;8.374;2022-12-18T03:15:30;-7.20;99.90
40504;DHT22;42292;49.048;8.374;2022-12-18T03:18:01;-7.40;99.90
40504;DHT22;42292;49.048;8.374;2022-12-18T03:20:29;-7.60;99.90
40504;DHT22;42292;49.048;8.374;2022-12-18T03:23:02;-7.80;99.90
40504;DHT22;42292;49.048;8.374;2022-12-18T03:25:33;-7.90;99.90
40504;DHT22;42292;49.048;8.374;2022-12-18T03:28:00;-7.90;99.90
40504;DHT22;42292;49.048;8.374;2022-12-18T03:30:29;-8.00;99.90
40504;DHT22;42292;49.048;8.374;2022-12-18T03:33:01;-8.00;99.90
40504;DHT22;42292;49.048;8.374;2022-12-18T03:35:35;-8.00;99.90
40504;DHT22;42292;49.048;8.374;2022-12-18T03:38:02;-8.10;99.90
40504;DHT22;42292;49.048;8.374;2022-12-18T03:46:59;-8.10;99.90
40504;DHT22;42292;49.048;8.374;2022-12-18T03:54:30;-8.00;99.90
40504;DHT22;42292;49.048;8.374;2022-12-18T03:57:01;-8.00;99.90
40504;DHT22;42292;49.048;8.374;2022-12-18T03:59:29;-7.90;99.90
40504;DHT22;42292;49.048;8.374;2022-12-18T04:01:56;-8.00;99.90
40504;DHT22;42292;49.048;8.374;2022-12-18T04:04:24;-8.00;99.90
40504;DHT22;42292;49.048;8.374;2022-12-18T04:06:50;-8.00;99.90
40504;DHT22;42292;49.048;8.374;2022-12-18T04:09:16;-8.00;99.90
40504;DHT22;42292;49.048;8.374;2022-12-18T04:11:42;-8.00;99.90
40504;DHT22;42292;49.048;8.374;2022-12-18T04:14:11;-7.80;99.90
40504;DHT22;42292;49.048;8.374;2022-12-18T04:16:39;-7.80;99.90
40504;DHT22;42292;49.048;8.374;2022-12-18T04:19:04;-7.60;99.90
40504;DHT22;42292;49.048;8.374;2022-12-18T04:21:33;-7.70;99.90
40504;DHT22;42292;49.048;8.374;2022-12-18T04:23:58;-7.70;99.90
40504;DHT22;42292;49.048;8.374;2022-12-18T04:26:26;-7.80;99.90
40504;DHT22;42292;49.048;8.374;2022-12-18T04:28:52;-7.80;99.90
40504;DHT22;42292;49.048;8.374;2022-12-18T04:31:20;-7.80;99.90
40504;DHT22;42292;49.048;8.374;2022-12-18T04:33:45;-7.90;99.90
40504;DHT22;42292;49.048;8.374;2022-12-18T04:36:13;-7.90;99.90
40504;DHT22;42292;49.048;8.374;2022-12-18T04:38:41;-8.00;99.90
40504;DHT22;42292;49.048;8.374;2022-12-18T04:41:09;-7.90;99.90
40504;DHT22;42292;49.048;8.374;2022-12-18T04:43:35;-7.90;99.90
40504;DHT22;42292;49.048;8.374;2022-12-18T04:46:07;-7.60;99.90
40504;DHT22;42292;49.048;8.374;2022-12-18T04:48:36;-7.50;99.90
40504;DHT22;42292;49.048;8.374;2022-12-18T04:51:02;-7.70;99.90
40504;DHT22;42292;49.048;8.374;2022-12-18T04:53:28;-7.80;99.90
40504;DHT22;42292;49.048;8.374;2022-12-18T04:56:12;-8.00;99.90
40504;DHT22;42292;49.048;8.374;2022-12-18T04:58:42;-8.10;99.90
40504;DHT22;42292;49.048;8.374;2022-12-18T05:01:09;-8.20;99.90
40504;DHT22;42292;49.048;8.374;2022-12-18T05:03:35;-8.30;99.90
40504;DHT22;42292;49.048;8.374;2022-12-18T05:06:04;-8.40;99.90
40504;DHT22;42292;49.048;8.374;2022-12-18T05:08:31;-8.40;99.90
40504;DHT22;42292;49.048;8.374;2022-12-18T05:11:09;-8.50;99.90
40504;DHT22;42292;49.048;8.374;2022-12-18T05:13:35;-8.50;99.90
40504;DHT22;42292;49.048;8.374;2022-12-18T05:16:01;-8.60;99.90
40504;DHT22;42292;49.048;8.374;2022-12-18T05:18:27;-8.60;99.90
40504;DHT22;42292;49.048;8.374;2022-12-18T05:20:55;-8.60;99.90
40504;DHT22;42292;49.048;8.374;2022-12-18T05:23:23;-8.60;99.90
40504;DHT22;42292;49.048;8.374;2022-12-18T05:28:18;-8.60;99.90
40504;DHT22;42292;49.048;8.374;2022-12-18T05:30:48;-8.60;99.90
40504;DHT22;42292;49.048;8.374;2022-12-18T05:33:15;-8.60;99.90
40504;DHT22;42292;49.048;8.374;2022-12-18T05:35:42;-8.60;99.90
40504;DHT22;42292;49.048;8.374;2022-12-18T05:38:08;-8.70;99.90
40504;DHT22;42292;49.048;8.374;2022-12-18T05:40:34;-8.70;99.90
40504;DHT22;42292;49.048;8.374;2022-12-18T05:43:07;-8.70;99.90
40504;DHT22;42292;49.048;8.374;2022-12-18T05:45:32;-8.70;99.90
40504;DHT22;42292;49.048;8.374;2022-12-18T05:48:00;-8.70;99.90
40504;DHT22;42292;49.048;8.374;2022-12-18T05:50:28;-8.70;99.90
40504;DHT22;42292;49.048;8.374;2022-12-18T05:52:54;-8.70;99.90
40504;DHT22;42292;49.048;8.374;2022-12-18T05:55:21;-8.70;99.90
40504;DHT22;42292;49.048;8.374;2022-12-18T05:57:47;-8.70;99.90
40504;DHT22;42292;49.048;8.374;2022-12-18T06:00:13;-8.70;99.90
40504;DHT22;42292;49.048;8.374;2022-12-18T06:02:41;-8.60;99.90
40504;DHT22;42292;49.048;8.374;2022-12-18T06:05:11;-8.60;99.90
40504;DHT22;42292;49.048;8.374;2022-12-18T06:07:41;-8.50;99.90
40504;DHT22;42292;49.048;8.374;2022-12-18T06:10:12;-8.40;99.90
40504;DHT22;42292;49.048;8.374;2022-12-18T06:12:39;-8.30;99.90
40504;DHT22;42292;49.048;8.374;2022-12-18T06:15:08;-8.20;99.90
40504;DHT22;42292;49.048;8.374;2022-12-18T06:17:36;-8.10;99.90
40504;DHT22;42292;49.048;8.374;2022-12-18T06:20:07;-8.00;99.90
40504;DHT22;42292;49.048;8.374;2022-12-18T06:22:35;-7.90;99.90
40504;DHT22;42292;49.048;8.374;2022-12-18T06:25:01;-7.80;99.90
40504;DHT22;42292;49.048;8.374;2022-12-18T06:27:28;-7.70;99.90
40504;DHT22;42292;49.048;8.374;2022-12-18T06:29:54;-7.50;99.90
40504;DHT22;42292;49.048;8.374;2022-12-18T06:32:20;-7.30;99.90
40504;DHT22;42292;49.048;8.374;2022-12-18T06:34:45;-7.30;99.90
40504;DHT22;42292;49.048;8.374;2022-12-18T06:37:11;-7.20;99.90
40504;DHT22;42292;49.048;8.374;2022-12-18T06:39:36;-7.30;99.90
40504;DHT22;42292;49.048;8.374;2022-12-18T06:42:04;-7.20;99.90
40504;DHT22;42292;49.048;8.374;2022-12-18T06:44:30;-7.20;99.90
40504;DHT22;42292;49.048;8.374;2022-12-18T06:46:56;-7.00;99.90
40504;DHT22;42292;49.048;8.374;2022-12-18T06:49:21;-7.10;99.90
40504;DHT22;42292;49.048;8.374;2022-12-18T06:51:47;-7.10;99.90
40504;DHT22;42292;49.048;8.374;2022-12-18T06:54:12;-7.10;99.90
40504;DHT22;42292;49.048;8.374;2022-12-18T06:56:44;-6.90;99.90
40504;DHT22;42292;49.048;8.374;2022-12-18T06:59:12;-6.90;99.90
40504;DHT22;42292;49.048;8.374;2022-12-18T07:01:41;-7.00;99.90
40504;DHT22;42292;49.048;8.374;2022-12-18T07:04:06;-6.90;99.90
40504;DHT22;42292;49.048;8.374;2022-12-18T07:06:32;-6.50;99.90
40504;DHT22;42292;49.048;8.374;2022-12-18T07:08:57;-6.40;99.90
40504;DHT22;42292;49.048;8.374;2022-12-18T07:11:25;-6.50;99.90
40504;DHT22;42292;49.048;8.374;2022-12-18T07:13:52;-6.50;99.90
40504;DHT22;42292;49.048;8.374;2022-12-18T07:16:20;-6.50;99.90
40504;DHT22;42292;49.048;8.374;2022-12-18T07:18:46;-6.50;99.90
40504;DHT22;42292;49.048;8.374;2022-12-18T07:21:15;-6.40;99.90
40504;DHT22;42292;49.048;8.374;2022-12-18T07:23:41;-6.50;99.90
40504;DHT22;42292;49.048;8.374;2022-12-18T07:26:11;-6.20;99.90
40504;DHT22;42292;49.048;8.374;2022-12-18T07:28:39;-6.10;99.90
40504;DHT22;42292;49.048;8.374;2022-12-18T07:31:19;-6.10;99.90
40504;DHT22;42292;49.048;8.374;2022-12-18T07:33:47;-5.90;99.90
40504;DHT22;42292;49.048;8.374;2022-12-18T07:36:13;-5.90;99.90
40504;DHT22;42292;49.048;8.374;2022-12-18T07:38:42;-5.90;99.90
40504;DHT22;42292;49.048;8.374;2022-12-18T07:41:10;-5.50;99.90
40504;DHT22;42292;49.048;8.374;2022-12-18T07:43:36;-5.20;99.90
40504;DHT22;42292;49.048;8.374;2022-12-18T07:46:11;-5.40;99.90
40504;DHT22;42292;49.048;8.374;2022-12-18T07:48:39;-5.50;99.90
40504;DHT22;42292;49.048;8.374;2022-12-18T07:51:06;-5.40;99.90
40504;DHT22;42292;49.048;8.374;2022-12-18T07:53:35;-5.40;99.90
40504;DHT22;42292;49.048;8.374;2022-12-18T07:56:03;-5.40;99.90
40504;DHT22;42292;49.048;8.374;2022-12-18T07:58:30;-5.60;99.90
40504;DHT22;42292;49.048;8.374;2022-12-18T08:01:08;-5.50;99.90
40504;DHT22;42292;49.048;8.374;2022-12-18T08:03:33;-5.50;99.90
40504;DHT22;42292;49.048;8.374;2022-12-18T08:06:04;-5.40;99.90
40504;DHT22;42292;49.048;8.374;2022-12-18T08:08:30;-5.30;99.90
40504;DHT22;42292;49.048;8.374;2022-12-18T08:10:58;-5.10;99.90
40504;DHT22;42292;49.048;8.374;2022-12-18T08:13:24;-5.00;99.90
40504;DHT22;42292;49.048;8.374;2022-12-18T08:16:01;-4.90;99.90
40504;DHT22;42292;49.048;8.374;2022-12-18T08:18:31;-4.80;99.90
40504;DHT22;42292;49.048;8.374;2022-12-18T08:23:36;-4.80;99.90
40504;DHT22;42292;49.048;8.374;2022-12-18T08:26:04;-5.10;99.90
40504;DHT22;42292;49.048;8.374;2022-12-18T08:28:32;-5.30;99.90
40504;DHT22;42292;49.048;8.374;2022-12-18T08:30:58;-4.90;99.90
40504;DHT22;42292;49.048;8.374;2022-12-18T08:33:24;-5.10;99.90
40504;DHT22;42292;49.048;8.374;2022-12-18T08:35:50;-4.90;99.90
40504;DHT22;42292;49.048;8.374;2022-12-18T08:38:20;-5.10;99.90
40504;DHT22;42292;49.048;8.374;2022-12-18T08:40:45;-5.00;99.90
40504;DHT22;42292;49.048;8.374;2022-12-18T08:43:11;-5.10;99.90
40504;DHT22;42292;49.048;8.374;2022-12-18T08:45:55;-5.10;99.90
40504;DHT22;42292;49.048;8.374;2022-12-18T08:48:21;-5.20;99.90
40504;DHT22;42292;49.048;8.374;2022-12-18T08:50:56;-5.20;99.90
40504;DHT22;42292;49.048;8.374;2022-12-18T08:53:22;-4.90;99.90
40504;DHT22;42292;49.048;8.374;2022-12-18T08:55:51;-4.50;99.90
40504;DHT22;42292;49.048;8.374;2022-12-18T08:58:19;-4.80;99.90
40504;DHT22;42292;49.048;8.374;2022-12-18T09:00:45;-4.80;99.90
40504;DHT22;42292;49.048;8.374;2022-12-18T09:03:19;-4.60;99.90
40504;DHT22;42292;49.048;8.374;2022-12-18T09:05:48;-4.40;99.90
40504;DHT22;42292;49.048;8.374;2022-12-18T09:08:13;-4.00;99.90
40504;DHT22;42292;49.048;8.374;2022-12-18T09:10:46;-3.80;99.90
40504;DHT22;42292;49.048;8.374;2022-12-18T09:13:15;-3.60;99.90
40504;DHT22;42292;49.048;8.374;2022-12-18T09:15:48;-3.60;99.90
40504;DHT22;42292;49.048;8.374;2022-12-18T09:18:19;-3.80;99.90
40504;DHT22;42292;49.048;8.374;2022-12-18T09:20:45;-4.20;99.90
40504;DHT22;42292;49.048;8.374;2022-12-18T09:23:11;-4.80;99.90
40504;DHT22;42292;49.048;8.374;2022-12-18T09:25:37;-4.50;99.90
40504;DHT22;42292;49.048;8.374;2022-12-18T09:28:10;-4.40;99.90
40504;DHT22;42292;49.048;8.374;2022-12-18T09:30:48;-3.80;99.90
40504;DHT22;42292;49.048;8.374;2022-12-18T09:33:15;-3.20;99.90
40504;DHT22;42292;49.048;8.374;2022-12-18T09:35:44;-3.00;99.90
40504;DHT22;42292;49.048;8.374;2022-12-18T09:38:15;-3.00;99.90
40504;DHT22;42292;49.048;8.374;2022-12-18T09:40:43;-3.80;99.90
40504;DHT22;42292;49.048;8.374;2022-12-18T09:43:26;-3.60;99.90
40504;DHT22;42292;49.048;8.374;2022-12-18T09:45:58;-3.50;99.90
40504;DHT22;42292;49.048;8.374;2022-12-18T09:48:34;-3.50;99.90
40504;DHT22;42292;49.048;8.374;2022-12-18T09:51:05;-3.00;99.90
40504;DHT22;42292;49.048;8.374;2022-12-18T09:53:37;-2.50;99.90
40504;DHT22;42292;49.048;8.374;2022-12-18T09:56:15;-2.60;99.90
40504;DHT22;42292;49.048;8.374;2022-12-18T09:58:55;-2.10;99.90
40504;DHT22;42292;49.048;8.374;2022-12-18T10:01:23;-1.50;99.90
40504;DHT22;42292;49.048;8.374;2022-12-18T10:03:49;-1.00;99.90
40504;DHT22;42292;49.048;8.374;2022-12-18T10:14:27;-1.80;99.90
40504;DHT22;42292;49.048;8.374;2022-12-18T10:23:00;-0.80;99.90
40504;DHT22;42292;49.048;8.374;2022-12-18T10:28:13;-2.10;99.90
40504;DHT22;42292;49.048;8.374;2022-12-18T10:30:40;-2.10;99.90
40504;DHT22;42292;49.048;8.374;2022-12-18T10:33:13;-2.10;99.90
40504;DHT22;42292;49.048;8.374;2022-12-18T10:35:41;-1.60;99.90
40504;DHT22;42292;49.048;8.374;2022-12-18T10:38:27;-0.40;99.90
40504;DHT22;42292;49.048;8.374;2022-12-18T10:41:02;1.70;99.90
40504;DHT22;42292;49.048;8.374;2022-12-18T10:43:32;2.30;99.90
40504;DHT22;42292;49.048;8.374;2022-12-18T10:51:07;1.70;99.90
40504;DHT22;42292;49.048;8.374;2022-12-18T10:53:39;1.60;99.90
40504;DHT22;42292;49.048;8.374;2022-12-18T10:56:08;1.60;99.90
40504;DHT22;42292;49.048;8.374;2022-12-18T10:58:40;2.00;99.90
40504;DHT22;42292;49.048;8.374;2022-12-18T11:01:14;2.20;99.90
40504;DHT22;42292;49.048;8.374;2022-12-18T11:06:21;3.90;99.90
40504;DHT22;42292;49.048;8.374;2022-12-18T11:09:17;5.80;99.90
40504;DHT22;42292;49.048;8.374;2022-12-18T11:11:52;5.40;99.90
40504;DHT22;42292;49.048;8.374;2022-12-18T11:14:33;5.90;99.90
40504;DHT22;42292;49.048;8.374;2022-12-18T11:17:03;4.80;99.90
40504;DHT22;42292;49.048;8.374;2022-12-18T11:19:36;5.90;99.40
40504;DHT22;42292;49.048;8.374;2022-12-18T11:22:18;7.20;97.90
40504;DHT22;42292;49.048;8.374;2022-12-18T11:27:23;9.70;89.60
40504;DHT22;42292;49.048;8.374;2022-12-18T11:29:50;9.40;86.30
40504;DHT22;42292;49.048;8.374;2022-12-18T11:35:32;9.40;80.70
40504;DHT22;42292;49.048;8.374;2022-12-18T11:38:04;9.80;79.50
40504;DHT22;42292;49.048;8.374;2022-12-18T11:40:35;9.10;80.10
40504;DHT22;42292;49.048;8.374;2022-12-18T11:46:16;8.30;81.50
40504;DHT22;42292;49.048;8.374;2022-12-18T11:49:07;7.80;81.70
40504;DHT22;42292;49.048;8.374;2022-12-18T11:51:43;7.10;85.20
40504;DHT22;42292;49.048;8.374;2022-12-18T11:54:15;6.30;86.10
40504;DHT22;42292;49.048;8.374;2022-12-18T11:56:47;6.70;87.80
40504;DHT22;42292;49.048;8.374;2022-12-18T12:16:25;5.40;90.50
40504;DHT22;42292;49.048;8.374;2022-12-18T12:21:42;5.30;90.20
40504;DHT22;42292;49.048;8.374;2022-12-18T12:29:33;5.80;90.00
40504;DHT22;42292;49.048;8.374;2022-12-18T12:35:15;5.20;91.20
40504;DHT22;42292;49.048;8.374;2022-12-18T12:40:19;4.00;92.20
40504;DHT22;42292;49.048;8.374;2022-12-18T12:42:56;3.30;93.60
40504;DHT22;42292;49.048;8.374;2022-12-18T12:45:47;2.70;95.10
40504;DHT22;42292;49.048;8.374;2022-12-18T12:48:36;2.40;96.20
40504;DHT22;42292;49.048;8.374;2022-12-18T12:51:27;2.30;97.40
40504;DHT22;42292;49.048;8.374;2022-12-18T12:53:55;2.40;97.10
40504;DHT22;42292;49.048;8.374;2022-12-18T12:56:32;2.80;97.10
40504;DHT22;42292;49.048;8.374;2022-12-18T12:59:18;2.70;96.80
40504;DHT22;42292;49.048;8.374;2022-12-18T13:07:06;2.90;98.20
40504;DHT22;42292;49.048;8.374;2022-12-18T13:09:33;2.80;98.20
40504;DHT22;42292;49.048;8.374;2022-12-18T13:12:13;2.90;97.70
40504;DHT22;42292;49.048;8.374;2022-12-18T13:18:17;2.60;98.20
40504;DHT22;42292;49.048;8.374;2022-12-18T13:23:35;2.30;99.60
40504;DHT22;42292;49.048;8.374;2022-12-18T13:34:20;2.40;99.90
40504;DHT22;42292;49.048;8.374;2022-12-18T13:36:46;2.70;99.90
40504;DHT22;42292;49.048;8.374;2022-12-18T13:41:49;3.20;99.00
40504;DHT22;42292;49.048;8.374;2022-12-18T13:44:36;2.90;99.00
40504;DHT22;42292;49.048;8.374;2022-12-18T13:47:05;2.50;99.90
40504;DHT22;42292;49.048;8.374;2022-12-18T13:49:49;2.00;99.90
40504;DHT22;42292;49.048;8.374;2022-12-18T13:52:22;1.30;99.90
40504;DHT22;42292;49.048;8.374;2022-12-18T13:54:56;1.30;99.90
40504;DHT22;42292;49.048;8.374;2022-12-18T13:57:30;0.80;99.90
40504;DHT22;42292;49.048;8.374;2022-12-18T13:59:57;0.50;99.90
40504;DHT22;42292;49.048;8.374;2022-12-18T14:02:28;0.30;99.90
40504;DHT22;42292;49.048;8.374;2022-12-18T14:04:54;0.40;99.90
40504;DHT22;42292;49.048;8.374;2022-12-18T14:07:25;0.30;99.90
40504;DHT22;42292;49.048;8.374;2022-12-18T14:09:55;0.00;99.90
40504;DHT22;42292;49.048;8.374;2022-12-18T14:12:27;-0.10;99.90
40504;DHT22;42292;49.048;8.374;2022-12-18T14:20:51;-0.30;99.90
40504;DHT22;42292;49.048;8.374;2022-12-18T14:25:51;-0.80;99.90
40504;DHT22;42292;49.048;8.374;2022-12-18T14:28:17;-0.90;99.90
40504;DHT22;42292;49.048;8.374;2022-12-18T14:30:45;-1.10;99.90
40504;DHT22;42292;49.048;8.374;2022-12-18T14:33:15;-1.20;99.90
40504;DHT22;42292;49.048;8.374;2022-12-18T14:40:54;-1.50;99.90
40504;DHT22;42292;49.048;8.374;2022-12-18T14:43:20;-1.70;99.90
40504;DHT22;42292;49.048;8.374;2022-12-18T14:45:46;-1.70;99.90
40504;DHT22;42292;49.048;8.374;2022-12-18T14:48:18;-1.90;99.90
40504;DHT22;42292;49.048;8.374;2022-12-18T14:50:44;-2.00;99.90
40504;DHT22;42292;49.048;8.374;2022-12-18T14:53:23;-2.00;99.90
40504;DHT22;42292;49.048;8.374;2022-12-18T14:55:49;-2.20;99.90
40504;DHT22;42292;49.048;8.374;2022-12-18T14:58:17;-2.30;99.90
40504;DHT22;42292;49.048;8.374;2022-12-18T15:00:43;-2.40;99.90
40504;DHT22;42292;49.048;8.374;2022-12-18T15:03:20;-2.60;99.90
40504;DHT22;42292;49.048;8.374;2022-12-18T15:05:48;-2.70;99.90
40504;DHT22;42292;49.048;8.374;2022-12-18T15:08:35;-2.80;99.90
40504;DHT22;42292;49.048;8.374;2022-12-18T15:11:01;-2.90;99.90
40504;DHT22;42292;49.048;8.374;2022-12-18T15:13:31;-2.80;99.90
40504;DHT22;42292;49.048;8.374;2022-12-18T15:16:00;-2.90;99.90
40504;DHT22;42292;49.048;8.374;2022-12-18T15:18:33;-3.00;99.90
40504;DHT22;42292;49.048;8.374;2022-12-18T15:21:11;-3.10;99.90
40504;DHT22;42292;49.048;8.374;2022-12-18T15:26:14;-3.10;99.90
40504;DHT22;42292;49.048;8.374;2022-12-18T15:29:00;-3.20;99.90
40504;DHT22;42292;49.048;8.374;2022-12-18T15:31:37;-3.30;99.90
40504;DHT22;42292;49.048;8.374;2022-12-18T15:34:13;-3.30;99.90
40504;DHT22;42292;49.048;8.374;2022-12-18T15:36:39;-3.20;99.90
40504;DHT22;42292;49.048;8.374;2022-12-18T15:39:05;-3.10;99.90
40504;DHT22;42292;49.048;8.374;2022-12-18T15:41:35;-3.10;99.90
40504;DHT22;42292;49.048;8.374;2022-12-18T15:44:00;-3.30;99.90
40504;DHT22;42292;49.048;8.374;2022-12-18T15:46:26;-3.40;99.90
40504;DHT22;42292;49.048;8.374;2022-12-18T15:48:56;-3.40;99.90
40504;DHT22;42292;49.048;8.374;2022-12-18T15:51:33;-3.40;99.90
40504;DHT22;42292;49.048;8.374;2022-12-18T15:54:02;-3.40;99.90
40504;DHT22;42292;49.048;8.374;2022-12-18T15:56:30;-3.40;99.90
40504;DHT22;42292;49.048;8.374;2022-12-18T15:59:17;-3.60;99.90
40504;DHT22;42292;49.048;8.374;2022-12-18T16:01:47;-3.40;99.90
40504;DHT22;42292;49.048;8.374;2022-12-18T16:04:18;-3.40;99.90
40504;DHT22;42292;49.048;8.374;2022-12-18T16:06:46;-3.10;99.90
40504;DHT22;42292;49.048;8.374;2022-12-18T16:09:16;-3.10;99.90
40504;DHT22;42292;49.048;8.374;2022-12-18T16:11:42;-3.10;99.90
40504;DHT22;42292;49.048;8.374;2022-12-18T16:16:37;-2.90;99.90
40504;DHT22;42292;49.048;8.374;2022-12-18T16:19:02;-3.20;99.90
40504;DHT22;42292;49.048;8.374;2022-12-18T16:21:28;-3.10;99.90
40504;DHT22;42292;49.048;8.374;2022-12-18T16:23:53;-3.10;99.90
40504;DHT22;42292;49.048;8.374;2022-12-18T16:26:19;-3.20;99.90
40504;DHT22;42292;49.048;8.374;2022-12-18T16:28:44;-3.10;99.90
40504;DHT22;42292;49.048;8.374;2022-12-18T16:31:14;-3.10;99.90
40504;DHT22;42292;49.048;8.374;2022-12-18T16:33:40;-3.10;99.90
40504;DHT22;42292;49.048;8.374;2022-12-18T16:36:06;-3.00;99.90
40504;DHT22;42292;49.048;8.374;2022-12-18T16:38:34;-3.00;99.90
40504;DHT22;42292;49.048;8.374;2022-12-18T16:41:15;-3.00;99.90
40504;DHT22;42292;49.048;8.374;2022-12-18T16:43:58;-2.90;99.90
40504;DHT22;42292;49.048;8.374;2022-12-18T16:46:25;-2.90;99.90
40504;DHT22;42292;49.048;8.374;2022-12-18T16:48:54;-2.80;99.90
40504;DHT22;42292;49.048;8.374;2022-12-18T16:51:21;-2.90;99.90
40504;DHT22;42292;49.048;8.374;2022-12-18T16:53:47;-3.10;99.90
40504;DHT22;42292;49.048;8.374;2022-12-18T16:56:12;-2.90;99.90
40504;DHT22;42292;49.048;8.374;2022-12-18T16:58:40;-3.00;99.90
40504;DHT22;42292;49.048;8.374;2022-12-18T17:01:10;-3.10;99.90
40504;DHT22;42292;49.048;8.374;2022-12-18T17:03:40;-3.10;99.90
40504;DHT22;42292;49.048;8.374;2022-12-18T17:06:07;-3.30;99.90
40504;DHT22;42292;49.048;8.374;2022-12-18T17:08:32;-3.40;99.90
40504;DHT22;42292;49.048;8.374;2022-12-18T17:11:08;-3.30;99.90
40504;DHT22;42292;49.048;8.374;2022-12-18T17:13:36;-3.30;99.90
40504;DHT22;42292;49.048;8.374;2022-12-18T17:16:08;-3.50;99.90
40504;DHT22;42292;49.048;8.374;2022-12-18T17:18:38;-3.40;99.90
40504;DHT22;42292;49.048;8.374;2022-12-18T17:21:06;-3.20;99.90
40504;DHT22;42292;49.048;8.374;2022-12-18T17:23:33;-3.40;99.90
40504;DHT22;42292;49.048;8.374;2022-12-18T17:25:59;-3.50;99.90
40504;DHT22;42292;49.048;8.374;2022-12-18T17:28:26;-3.50;99.90
40504;DHT22;42292;49.048;8.374;2022-12-18T17:30:53;-3.70;99.90
40504;DHT22;42292;49.048;8.374;2022-12-18T17:33:22;-3.80;99.90
40504;DHT22;42292;49.048;8.374;2022-12-18T17:35:48;-3.80;99.90
40504;DHT22;42292;49.048;8.374;2022-12-18T17:38:14;-4.00;99.90
40504;DHT22;42292;49.048;8.374;2022-12-18T17:40:44;-3.80;99.90
40504;DHT22;42292;49.048;8.374;2022-12-18T17:43:12;-3.50;99.90
40504;DHT22;42292;49.048;8.374;2022-12-18T17:45:38;-3.50;99.90
40504;DHT22;42292;49.048;8.374;2022-12-18T17:48:08;-3.60;99.90
40504;DHT22;42292;49.048;8.374;2022-12-18T17:50:36;-3.70;99.90
40504;DHT22;42292;49.048;8.374;2022-12-18T17:53:02;-3.30;99.90
40504;DHT22;42292;49.048;8.374;2022-12-18T17:55:28;-3.10;99.90
40504;DHT22;42292;49.048;8.374;2022-12-18T17:57:54;-3.20;99.90
40504;DHT22;42292;49.048;8.374;2022-12-18T18:00:20;-3.30;99.90
40504;DHT22;42292;49.048;8.374;2022-12-18T18:02:45;-3.20;99.90
40504;DHT22;42292;49.048;8.374;2022-12-18T18:05:12;-3.10;99.90
40504;DHT22;42292;49.048;8.374;2022-12-18T18:07:42;-3.30;99.90
40504;DHT22;42292;49.048;8.374;2022-12-18T18:10:08;-3.50;99.90
40504;DHT22;42292;49.048;8.374;2022-12-18T18:12:35;-3.60;99.90
40504;DHT22;42292;49.048;8.374;2022-12-18T18:15:19;-3.70;99.90
40504;DHT22;42292;49.048;8.374;2022-12-18T18:17:45;-3.50;99.90